Time,TemperatureF,DewpointF,PressureIn,WindDirection,WindDirectionDegrees,WindSpeedMPH,WindSpeedGustMPH,Humidity,HourlyPrecipIn,Conditions,Clouds,dailyrainin,SoftwareType,DateUTC
2013-01-09 00:00:00,49.5,48.4,29.70,SW,225,6.0,22.4,96,0.10,,,1.05,NetBSD+Arduino,2013-01-09 08:00:00,
2013-01-09 00:06:00,49.3,48.3,29.70,South,180,9.8,16.4,96,0.08,,,0.00,NetBSD+Arduino,2013-01-09 08:06:00,
2013-01-09 00:11:00,49.3,48.3,29.70,South,180,5.2,16.4,96,0.08,,,0.00,NetBSD+Arduino,2013-01-09 08:11:00,
2013-01-09 00:16:00,49.2,48.3,29.70,SW,225,5.2,14.9,96,0.08,,,0.02,NetBSD+Arduino,2013-01-09 08:16:00,
2013-01-09 00:21:00,49.2,48.2,29.69,South,180,16.4,17.9,96,0.10,,,0.03,NetBSD+Arduino,2013-01-09 08:21:00,
2013-01-09 00:26:00,49.2,48.3,29.70,SW,225,4.5,16.4,96,0.08,,,0.03,NetBSD+Arduino,2013-01-09 08:26:00,
2013-01-09 00:31:00,49.3,48.3,29.70,South,180,3.0,22.4,96,0.08,,,0.05,NetBSD+Arduino,2013-01-09 08:31:00,
2013-01-09 00:36:00,49.4,48.2,29.70,SW,225,7.8,20.9,95,0.10,,,0.06,NetBSD+Arduino,2013-01-09 08:36:00,
2013-01-09 00:41:00,49.4,48.2,29.70,South,180,8.4,20.9,95,0.10,,,0.06,NetBSD+Arduino,2013-01-09 08:41:00,
2013-01-09 00:46:00,49.4,48.3,29.70,South,180,3.7,20.9,96,0.10,,,0.06,NetBSD+Arduino,2013-01-09 08:46:00,
2013-01-09 00:51:00,49.2,48.2,29.70,SE,135,5.1,13.4,96,0.11,,,0.08,NetBSD+Arduino,2013-01-09 08:51:00,
2013-01-09 00:56:00,49.2,48.1,29.70,South,180,12.5,14.9,96,0.11,,,0.10,NetBSD+Arduino,2013-01-09 08:56:00,
2013-01-09 01:01:00,49.2,48.1,29.70,SW,225,2.2,16.4,96,0.10,,,0.10,NetBSD+Arduino,2013-01-09 09:01:00,
2013-01-09 01:06:00,49.2,48.2,29.70,SW,225,8.2,16.4,96,0.10,,,0.10,NetBSD+Arduino,2013-01-09 09:06:00,
2013-01-09 01:11:00,49.1,48.2,29.70,SW,225,4.2,16.4,96,0.11,,,0.11,NetBSD+Arduino,2013-01-09 09:11:00,
2013-01-09 01:16:00,49.1,48.2,29.70,SW,225,4.5,13.4,96,0.11,,,0.13,NetBSD+Arduino,2013-01-09 09:16:00,
2013-01-09 01:21:00,49.0,48.1,29.70,South,180,8.2,11.9,96,0.10,,,0.13,NetBSD+Arduino,2013-01-09 09:21:00,
2013-01-09 01:26:00,49.0,48.1,29.70,SE,135,3.6,20.9,96,0.10,,,0.13,NetBSD+Arduino,2013-01-09 09:26:00,
2013-01-09 01:31:00,49.0,48.0,29.70,SW,225,1.5,17.9,96,0.08,,,0.13,NetBSD+Arduino,2013-01-09 09:31:00,
2013-01-09 01:36:00,49.0,48.0,29.69,South,180,10.4,14.9,96,0.06,,,0.13,NetBSD+Arduino,2013-01-09 09:36:00,
2013-01-09 01:41:00,49.0,48.0,29.70,South,180,3.7,14.9,96,0.06,,,0.13,NetBSD+Arduino,2013-01-09 09:41:00,
2013-01-09 01:46:00,49.0,47.9,29.69,South,180,4.8,23.9,96,0.08,,,0.14,NetBSD+Arduino,2013-01-09 09:46:00,
2013-01-09 01:51:00,48.8,48.0,29.69,South,180,9.7,17.9,96,0.06,,,0.14,NetBSD+Arduino,2013-01-09 09:51:00,
2013-01-09 01:56:00,49.0,48.0,29.69,South,180,5.7,23.9,96,0.06,,,0.16,NetBSD+Arduino,2013-01-09 09:56:00,
2013-01-09 02:06:00,48.6,47.8,29.70,NW,315,7.8,13.4,96,0.13,,,0.22,NetBSD+Arduino,2013-01-09 10:06:00,
2013-01-09 02:11:00,47.4,46.5,29.70,West,270,3.3,13.4,96,0.13,,,0.24,NetBSD+Arduino,2013-01-09 10:11:00,
2013-01-09 02:16:00,46.9,46.0,29.70,SW,225,3.0,10.4,96,0.11,,,0.24,NetBSD+Arduino,2013-01-09 10:16:00,
2013-01-09 02:21:00,46.5,45.6,29.70,SW,225,3.4,10.4,96,0.13,,,0.26,NetBSD+Arduino,2013-01-09 10:21:00,
2013-01-09 02:26:00,46.1,45.0,29.70,South,180,1.1,11.9,96,0.13,,,0.26,NetBSD+Arduino,2013-01-09 10:26:00,
2013-01-09 02:31:00,45.7,44.8,29.70,SW,225,3.0,9.0,96,0.13,,,0.26,NetBSD+Arduino,2013-01-09 10:31:00,
2013-01-09 02:36:00,45.5,44.5,29.70,SW,225,1.1,6.0,96,0.13,,,0.26,NetBSD+Arduino,2013-01-09 10:36:00,
2013-01-09 02:41:00,45.6,44.8,29.71,SW,225,1.8,6.0,96,0.14,,,0.27,NetBSD+Arduino,2013-01-09 10:41:00,
2013-01-09 02:46:00,45.6,44.8,29.71,South,180,0.7,6.0,96,0.14,,,0.29,NetBSD+Arduino,2013-01-09 10:46:00,
2013-01-09 02:51:00,45.4,44.6,29.70,SE,135,1.9,7.5,96,0.14,,,0.29,NetBSD+Arduino,2013-01-09 10:51:00,
2013-01-09 02:56:00,45.2,44.5,29.69,SW,225,2.1,10.4,97,0.14,,,0.30,NetBSD+Arduino,2013-01-09 10:56:00,
2013-01-09 03:11:00,44.8,43.9,29.69,West,270,3.0,7.5,96,0.06,,,0.30,NetBSD+Arduino,2013-01-09 11:11:00,
2013-01-09 03:20:00,44.7,43.9,29.69,SW,225,0.0,6.0,97,0.05,,,0.30,NetBSD+Arduino,2013-01-09 11:20:00,
2013-01-09 03:28:00,44.4,43.6,29.67,South,180,3.7,6.0,97,0.05,,,0.30,NetBSD+Arduino,2013-01-09 11:28:00,
2013-01-09 03:33:00,44.4,43.6,29.67,SW,225,3.4,7.5,97,0.05,,,0.30,NetBSD+Arduino,2013-01-09 11:33:00,
2013-01-09 03:38:00,44.1,43.3,29.67,South,180,0.0,9.0,96,0.06,,,0.32,NetBSD+Arduino,2013-01-09 11:38:00,
2013-01-09 03:43:00,44.1,43.2,29.67,SW,225,3.7,10.4,96,0.06,,,0.34,NetBSD+Arduino,2013-01-09 11:43:00,
2013-01-09 03:48:00,44.1,43.2,29.66,SW,225,2.1,9.0,96,0.05,,,0.34,NetBSD+Arduino,2013-01-09 11:48:00,
2013-01-09 03:53:00,43.9,43.1,29.66,SW,225,1.9,6.0,96,0.05,,,0.34,NetBSD+Arduino,2013-01-09 11:53:00,
2013-01-09 04:06:00,43.6,43.0,29.66,SW,225,4.2,10.4,97,0.06,,,0.37,NetBSD+Arduino,2013-01-09 12:06:00,
2013-01-09 04:11:00,43.5,42.8,29.67,NW,315,4.2,9.0,97,0.06,,,0.37,NetBSD+Arduino,2013-01-09 12:11:00,
2013-01-09 04:16:00,43.3,42.7,29.66,SW,225,3.7,7.5,97,0.08,,,0.38,NetBSD+Arduino,2013-01-09 12:16:00,
2013-01-09 04:21:00,43.2,42.6,29.66,West,270,2.2,7.5,97,0.10,,,0.40,NetBSD+Arduino,2013-01-09 12:21:00,
2013-01-09 04:26:00,43.0,42.4,29.65,West,270,1.9,7.5,97,0.11,,,0.42,NetBSD+Arduino,2013-01-09 12:26:00,
2013-01-09 04:31:00,43.0,42.4,29.64,SW,225,3.7,7.5,97,0.13,,,0.43,NetBSD+Arduino,2013-01-09 12:31:00,
2013-01-09 04:41:00,42.9,42.3,29.66,SW,225,3.0,6.0,97,0.10,,,0.43,NetBSD+Arduino,2013-01-09 12:41:00,
2013-01-09 04:46:00,42.8,42.1,29.64,SW,225,2.2,4.5,97,0.10,,,0.43,NetBSD+Arduino,2013-01-09 12:46:00,
2013-01-09 04:51:00,42.7,42.0,29.64,West,270,4.8,7.5,97,0.11,,,0.45,NetBSD+Arduino,2013-01-09 12:51:00,
2013-01-09 04:56:00,42.7,42.0,29.64,South,180,0.9,6.0,97,0.13,,,0.46,NetBSD+Arduino,2013-01-09 12:56:00,
2013-01-09 05:01:00,42.8,42.2,29.64,SW,225,2.1,6.0,97,0.11,,,0.46,NetBSD+Arduino,2013-01-09 13:01:00,
2013-01-09 05:06:00,42.8,42.3,29.64,South,180,3.4,4.5,98,0.10,,,0.46,NetBSD+Arduino,2013-01-09 13:06:00,
2013-01-09 05:11:00,42.7,42.2,29.64,NW,315,0.9,7.5,97,0.10,,,0.46,NetBSD+Arduino,2013-01-09 13:11:00,
2013-01-09 05:16:00,42.8,42.4,29.64,North,0,1.1,4.5,98,0.08,,,0.46,NetBSD+Arduino,2013-01-09 13:16:00,
2013-01-09 05:21:00,42.8,42.3,29.64,North,0,0.7,1.5,98,0.08,,,0.48,NetBSD+Arduino,2013-01-09 13:21:00,
2013-01-09 05:26:00,42.7,42.2,29.64,South,180,0.3,3.0,98,0.08,,,0.50,NetBSD+Arduino,2013-01-09 13:26:00,
2013-01-09 05:31:00,42.5,42.1,29.63,SE,135,0.7,3.0,98,0.06,,,0.50,NetBSD+Arduino,2013-01-09 13:31:00,
2013-01-09 05:36:00,42.5,42.1,29.63,SW,225,1.1,6.0,98,0.06,,,0.50,NetBSD+Arduino,2013-01-09 13:36:00,
2013-01-09 05:41:00,42.5,42.0,29.63,South,180,0.3,4.5,98,0.08,,,0.51,NetBSD+Arduino,2013-01-09 13:41:00,
2013-01-09 05:46:00,42.3,41.9,29.63,South,180,3.4,4.5,98,0.10,,,0.53,NetBSD+Arduino,2013-01-09 13:46:00,
2013-01-09 05:51:00,42.3,41.9,29.63,South,180,1.9,4.5,98,0.08,,,0.53,NetBSD+Arduino,2013-01-09 13:51:00,
2013-01-09 05:56:00,42.3,41.9,29.63,SE,135,1.8,3.0,98,0.08,,,0.54,NetBSD+Arduino,2013-01-09 13:56:00,
2013-01-09 06:07:00,42.3,41.9,29.63,SW,225,0.0,1.5,98,0.11,,,0.58,NetBSD+Arduino,2013-01-09 14:07:00,
2013-01-09 06:12:00,42.3,41.9,29.64,SW,225,0.0,0.0,98,0.13,,,0.59,NetBSD+Arduino,2013-01-09 14:12:00,
2013-01-09 06:21:00,42.3,41.9,29.64,South,180,0.0,4.5,98,0.14,,,0.62,NetBSD+Arduino,2013-01-09 14:21:00,
2013-01-09 06:26:00,42.3,41.8,29.64,SW,225,2.4,3.0,98,0.13,,,0.62,NetBSD+Arduino,2013-01-09 14:26:00,
2013-01-09 06:31:00,42.2,41.7,29.64,SW,225,1.1,4.5,98,0.13,,,0.62,NetBSD+Arduino,2013-01-09 14:31:00,
2013-01-09 06:36:00,42.1,41.7,29.64,South,180,2.6,6.0,98,0.14,,,0.64,NetBSD+Arduino,2013-01-09 14:36:00,
2013-01-09 06:41:00,41.9,41.4,29.64,South,180,1.1,9.0,98,0.14,,,0.66,NetBSD+Arduino,2013-01-09 14:41:00,
2013-01-09 06:46:00,42.0,41.5,29.64,SW,225,0.0,6.0,98,0.13,,,0.66,NetBSD+Arduino,2013-01-09 14:46:00,
2013-01-09 06:51:00,42.0,41.6,29.66,South,180,1.5,3.0,98,0.13,,,0.66,NetBSD+Arduino,2013-01-09 14:51:00,
2013-01-09 06:56:00,41.9,41.4,29.66,SW,225,3.0,7.5,98,0.13,,,0.67,NetBSD+Arduino,2013-01-09 14:56:00,
2013-01-09 07:06:00,41.8,41.3,29.66,West,270,2.1,6.0,98,0.13,,,0.70,NetBSD+Arduino,2013-01-09 15:06:00,
2013-01-09 07:11:00,41.5,41.0,29.66,South,180,0.4,6.0,98,0.13,,,0.72,NetBSD+Arduino,2013-01-09 15:11:00,
2013-01-09 07:21:00,41.0,40.5,29.65,SE,135,1.5,7.5,98,0.13,,,0.75,NetBSD+Arduino,2013-01-09 15:21:00,
2013-01-09 07:26:00,40.9,40.4,29.65,SW,225,1.5,9.0,98,0.13,,,0.75,NetBSD+Arduino,2013-01-09 15:26:00,
2013-01-09 07:31:00,41.0,40.6,29.66,South,180,0.0,6.0,98,0.13,,,0.75,NetBSD+Arduino,2013-01-09 15:31:00,
2013-01-09 07:36:00,41.1,40.6,29.66,South,180,0.6,10.4,98,0.11,,,0.75,NetBSD+Arduino,2013-01-09 15:36:00,
2013-01-09 07:41:00,41.2,40.7,29.67,South,180,0.7,4.5,98,0.11,,,0.77,NetBSD+Arduino,2013-01-09 15:41:00,
2013-01-09 07:46:00,41.2,40.8,29.67,South,180,2.1,3.0,98,0.13,,,0.78,NetBSD+Arduino,2013-01-09 15:46:00,
2013-01-09 07:51:00,41.2,40.8,29.68,South,180,0.0,3.0,98,0.13,,,0.78,NetBSD+Arduino,2013-01-09 15:51:00,
2013-01-09 07:56:00,41.2,40.8,29.68,South,180,1.1,7.5,98,0.11,,,0.78,NetBSD+Arduino,2013-01-09 15:56:00,
2013-01-09 08:06:00,41.0,40.5,29.69,SE,135,1.8,4.5,98,0.11,,,0.82,NetBSD+Arduino,2013-01-09 16:06:00,
2013-01-09 08:11:00,41.0,40.5,29.69,South,180,6.3,9.0,98,0.10,,,0.82,NetBSD+Arduino,2013-01-09 16:11:00,
2013-01-09 08:16:00,40.8,40.2,29.70,South,180,4.5,7.5,98,0.11,,,0.83,NetBSD+Arduino,2013-01-09 16:16:00,
2013-01-09 08:21:00,40.6,40.1,29.69,South,180,4.8,6.0,98,0.10,,,0.85,NetBSD+Arduino,2013-01-09 16:21:00,
2013-01-09 08:26:00,40.7,40.2,29.69,SE,135,2.6,7.5,98,0.10,,,0.85,NetBSD+Arduino,2013-01-09 16:26:00,
2013-01-09 08:31:00,40.5,40.0,29.69,SE,135,4.8,9.0,98,0.10,,,0.85,NetBSD+Arduino,2013-01-09 16:31:00,
2013-01-09 08:36:00,40.2,39.8,29.69,SE,135,2.7,9.0,98,0.13,,,0.88,NetBSD+Arduino,2013-01-09 16:36:00,
2013-01-09 08:41:00,39.7,39.4,29.70,South,180,4.8,7.5,98,0.11,,,0.88,NetBSD+Arduino,2013-01-09 16:41:00,
2013-01-09 08:46:00,39.5,39.1,29.70,South,180,9.3,10.4,98,0.10,,,0.88,NetBSD+Arduino,2013-01-09 16:46:00,
2013-01-09 08:51:00,39.0,38.6,29.70,SE,135,7.8,13.4,98,0.11,,,0.90,NetBSD+Arduino,2013-01-09 16:51:00,
2013-01-09 08:56:00,38.6,38.2,29.69,South,180,19.4,23.9,98,0.13,,,0.91,NetBSD+Arduino,2013-01-09 16:56:00,
2013-01-09 09:06:00,37.6,37.2,29.70,SE,135,11.2,20.9,98,0.10,,,0.91,NetBSD+Arduino,2013-01-09 17:06:00,
2013-01-09 09:11:00,37.4,37.0,29.71,South,180,8.4,17.9,98,0.10,,,0.91,NetBSD+Arduino,2013-01-09 17:11:00,
2013-01-09 09:16:00,37.3,37.0,29.70,South,180,9.0,11.9,98,0.08,,,0.91,NetBSD+Arduino,2013-01-09 17:16:00,
2013-01-09 09:21:00,37.1,36.7,29.71,SW,225,4.8,13.4,98,0.06,,,0.91,NetBSD+Arduino,2013-01-09 17:21:00,
2013-01-09 09:26:00,36.7,36.3,29.72,SE,135,7.1,13.4,98,0.06,,,0.91,NetBSD+Arduino,2013-01-09 17:26:00,
2013-01-09 09:31:00,36.4,36.0,29.71,SE,135,7.2,11.9,98,0.06,,,0.91,NetBSD+Arduino,2013-01-09 17:31:00,
2013-01-09 09:36:00,36.6,36.4,29.71,SE,135,5.6,13.4,98,0.03,,,0.91,NetBSD+Arduino,2013-01-09 17:36:00,
2013-01-09 09:41:00,36.4,36.2,29.71,SE,135,8.7,13.4,98,0.03,,,0.91,NetBSD+Arduino,2013-01-09 17:41:00,
2013-01-09 09:46:00,36.5,36.2,29.72,SE,135,7.2,11.9,98,0.03,,,0.91,NetBSD+Arduino,2013-01-09 17:46:00,
2013-01-09 09:51:00,36.3,36.0,29.72,South,180,3.4,10.4,98,0.02,,,0.91,NetBSD+Arduino,2013-01-09 17:51:00,
2013-01-09 09:56:00,36.2,35.9,29.72,SE,135,5.6,10.4,98,0.02,,,0.93,NetBSD+Arduino,2013-01-09 17:56:00,
2013-01-09 10:06:00,36.1,35.8,29.71,South,180,4.8,10.4,98,0.03,,,0.94,NetBSD+Arduino,2013-01-09 18:06:00,
2013-01-09 10:11:00,36.1,35.8,29.71,SE,135,4.8,16.4,98,0.03,,,0.94,NetBSD+Arduino,2013-01-09 18:11:00,
2013-01-09 10:16:00,36.1,35.8,29.70,SE,135,8.6,16.4,98,0.03,,,0.94,NetBSD+Arduino,2013-01-09 18:16:00,
2013-01-09 10:21:00,36.3,36.0,29.72,South,180,9.0,14.9,98,0.03,,,0.94,NetBSD+Arduino,2013-01-09 18:21:00,
2013-01-09 10:26:00,36.4,36.2,29.72,South,180,10.8,11.9,98,0.03,,,0.94,NetBSD+Arduino,2013-01-09 18:26:00,
2013-01-09 10:31:00,36.4,36.2,29.72,South,180,4.1,11.9,98,0.03,,,0.94,NetBSD+Arduino,2013-01-09 18:31:00,
2013-01-09 10:36:00,36.6,36.3,29.72,South,180,0.4,11.9,98,0.03,,,0.94,NetBSD+Arduino,2013-01-09 18:36:00,
2013-01-09 10:41:00,36.6,36.4,29.73,South,180,2.4,7.5,98,0.03,,,0.94,NetBSD+Arduino,2013-01-09 18:41:00,
2013-01-09 10:46:00,36.7,36.5,29.73,South,180,5.7,9.0,98,0.03,,,0.94,NetBSD+Arduino,2013-01-09 18:46:00,
2013-01-09 10:51:00,36.8,36.5,29.73,South,180,1.2,9.0,98,0.03,,,0.94,NetBSD+Arduino,2013-01-09 18:51:00,
2013-01-09 10:56:00,36.8,36.5,29.73,SW,225,1.1,7.5,98,0.02,,,0.94,NetBSD+Arduino,2013-01-09 18:56:00,
2013-01-09 11:06:00,36.7,36.5,29.73,South,180,7.1,9.0,98,0.00,,,0.94,NetBSD+Arduino,2013-01-09 19:06:00,
2013-01-09 11:11:00,36.9,36.6,29.73,South,180,7.8,13.4,98,0.00,,,0.94,NetBSD+Arduino,2013-01-09 19:11:00,
2013-01-09 11:16:00,36.8,36.5,29.73,South,180,11.9,13.4,98,0.00,,,0.94,NetBSD+Arduino,2013-01-09 19:16:00,
2013-01-09 11:21:00,37.2,37.0,29.73,SE,135,1.9,14.9,99,0.00,,,0.94,NetBSD+Arduino,2013-01-09 19:21:00,
2013-01-09 11:26:00,37.3,37.0,29.72,South,180,6.7,16.4,99,0.00,,,0.94,NetBSD+Arduino,2013-01-09 19:26:00,
2013-01-09 11:31:00,37.4,37.2,29.73,SE,135,1.1,10.4,99,0.00,,,0.94,NetBSD+Arduino,2013-01-09 19:31:00,
2013-01-09 11:36:00,37.5,37.2,29.73,South,180,7.5,11.9,98,0.00,,,0.94,NetBSD+Arduino,2013-01-09 19:36:00,
2013-01-09 11:41:00,37.5,37.1,29.72,South,180,3.0,9.0,98,0.00,,,0.94,NetBSD+Arduino,2013-01-09 19:41:00,
2013-01-09 11:51:00,38.0,37.6,29.73,South,180,0.0,6.0,98,0.00,,,0.94,NetBSD+Arduino,2013-01-09 19:51:00,
2013-01-09 11:56:00,38.0,37.6,29.72,South,180,6.3,14.9,98,0.00,,,0.94,NetBSD+Arduino,2013-01-09 19:56:00,
2013-01-09 12:05:00,38.3,37.9,29.72,SE,135,3.7,11.9,98,0.00,,,0.94,NetBSD+Arduino,2013-01-09 20:05:00,
2013-01-09 12:16:00,38.4,38.0,29.72,SE,135,8.6,10.4,98,0.00,,,0.94,NetBSD+Arduino,2013-01-09 20:16:00,
2013-01-09 12:26:00,38.7,38.2,29.72,South,180,3.0,10.4,98,0.00,,,0.94,NetBSD+Arduino,2013-01-09 20:26:00,
2013-01-09 12:31:00,38.8,38.3,29.72,SE,135,0.6,11.9,98,0.00,,,0.94,NetBSD+Arduino,2013-01-09 20:31:00,
2013-01-09 12:36:00,38.8,38.3,29.72,East,90,5.2,13.4,98,0.00,,,0.94,NetBSD+Arduino,2013-01-09 20:36:00,
2013-01-09 12:41:00,38.7,38.1,29.72,South,180,6.7,10.4,97,0.00,,,0.94,NetBSD+Arduino,2013-01-09 20:41:00,
2013-01-09 12:46:00,39.0,38.5,29.72,South,180,1.9,9.0,98,0.00,,,0.94,NetBSD+Arduino,2013-01-09 20:46:00,
2013-01-09 12:51:00,39.5,39.0,29.72,South,180,2.4,6.0,98,0.00,,,0.94,NetBSD+Arduino,2013-01-09 20:51:00,
2013-01-09 13:00:00,39.8,39.4,29.72,SE,135,3.0,7.5,98,0.00,,,0.94,NetBSD+Arduino,2013-01-09 21:00:00,
2013-01-09 13:06:00,40.0,39.5,29.72,South,180,2.1,10.4,98,0.00,,,0.94,NetBSD+Arduino,2013-01-09 21:06:00,
2013-01-09 13:21:00,40.6,40.1,29.72,SE,135,4.5,7.5,98,0.00,,,0.94,NetBSD+Arduino,2013-01-09 21:21:00,
2013-01-09 13:35:00,40.9,40.4,29.73,South,180,3.7,9.0,98,0.00,,,0.94,NetBSD+Arduino,2013-01-09 21:35:00,
2013-01-09 13:45:00,41.2,40.7,29.74,SE,135,0.0,4.5,98,0.00,,,0.94,NetBSD+Arduino,2013-01-09 21:45:00,
2013-01-09 13:50:00,41.5,41.0,29.74,South,180,3.0,7.5,98,0.00,,,0.94,NetBSD+Arduino,2013-01-09 21:50:00,
2013-01-09 13:55:00,41.8,41.1,29.74,SW,225,4.2,10.4,97,0.00,,,0.94,NetBSD+Arduino,2013-01-09 21:55:00,
2013-01-09 14:05:00,42.3,41.4,29.74,SW,225,2.2,6.0,96,0.00,,,0.94,NetBSD+Arduino,2013-01-09 22:05:00,
2013-01-09 14:15:00,42.5,41.2,29.75,SW,225,3.3,9.0,95,0.00,,,0.94,NetBSD+Arduino,2013-01-09 22:15:00,
2013-01-09 14:20:00,42.3,40.9,29.75,West,270,1.5,10.4,94,0.00,,,0.94,NetBSD+Arduino,2013-01-09 22:20:00,
2013-01-09 14:26:00,42.5,41.2,29.75,SW,225,1.5,9.0,95,0.00,,,0.94,NetBSD+Arduino,2013-01-09 22:26:00,
2013-01-09 14:36:00,42.3,40.8,29.76,SW,225,1.5,6.0,94,0.00,,,0.94,NetBSD+Arduino,2013-01-09 22:36:00,
2013-01-09 14:41:00,42.3,40.8,29.76,South,180,4.5,7.5,94,0.00,,,0.94,NetBSD+Arduino,2013-01-09 22:41:00,
2013-01-09 14:46:00,42.3,40.7,29.76,South,180,1.5,9.0,93,0.00,,,0.94,NetBSD+Arduino,2013-01-09 22:46:00,
2013-01-09 14:55:00,42.5,40.9,29.76,SW,225,2.2,7.5,93,0.00,,,0.94,NetBSD+Arduino,2013-01-09 22:55:00,
2013-01-09 15:05:00,42.5,40.8,29.77,South,180,3.4,7.5,93,0.00,,,0.94,NetBSD+Arduino,2013-01-09 23:05:00,
2013-01-09 15:11:00,42.3,40.6,29.77,South,180,3.6,7.5,93,0.00,,,0.94,NetBSD+Arduino,2013-01-09 23:11:00,
2013-01-09 15:20:00,42.3,40.4,29.77,South,180,3.0,7.5,92,0.00,,,0.94,NetBSD+Arduino,2013-01-09 23:20:00,
2013-01-09 15:25:00,42.3,40.2,29.78,South,180,4.1,13.4,91,0.00,,,0.94,NetBSD+Arduino,2013-01-09 23:25:00,
2013-01-09 15:30:00,42.2,39.8,29.79,SW,225,3.0,9.0,91,0.00,,,0.94,NetBSD+Arduino,2013-01-09 23:30:00,
2013-01-09 15:41:00,42.0,39.4,29.80,NE,45,8.0,9.0,90,0.00,,,0.94,NetBSD+Arduino,2013-01-09 23:41:00,
2013-01-09 15:51:00,39.3,37.5,29.80,NE,45,1.8,7.5,93,0.00,,,0.94,NetBSD+Arduino,2013-01-09 23:51:00,
2013-01-09 16:00:00,39.1,37.6,29.80,South,180,3.4,6.0,94,0.00,,,0.94,NetBSD+Arduino,2013-01-10 00:00:00,
2013-01-09 16:06:00,39.0,37.6,29.80,East,90,1.9,6.0,94,0.00,,,0.94,NetBSD+Arduino,2013-01-10 00:06:00,
2013-01-09 16:15:00,38.3,37.1,29.81,North,0,1.5,11.9,95,0.00,,,0.94,NetBSD+Arduino,2013-01-10 00:15:00,
2013-01-09 16:25:00,38.0,37.0,29.82,SE,135,0.0,3.0,96,0.02,,,0.96,NetBSD+Arduino,2013-01-10 00:25:00,
2013-01-09 16:30:00,37.7,36.7,29.82,NE,45,2.6,4.5,96,0.02,,,0.96,NetBSD+Arduino,2013-01-10 00:30:00,
2013-01-09 16:35:00,37.7,36.7,29.82,North,0,1.2,6.0,96,0.02,,,0.96,NetBSD+Arduino,2013-01-10 00:35:00,
2013-01-09 16:46:00,37.2,36.3,29.82,East,90,4.5,9.0,96,0.02,,,0.96,NetBSD+Arduino,2013-01-10 00:46:00,
2013-01-09 16:55:00,36.8,35.9,29.83,NE,45,3.3,10.4,96,0.02,,,0.96,NetBSD+Arduino,2013-01-10 00:55:00,
2013-01-09 17:00:00,36.7,36.0,29.83,NE,45,1.5,4.5,97,0.02,,,0.96,NetBSD+Arduino,2013-01-10 01:00:00,
2013-01-09 17:05:00,36.7,36.0,29.83,North,0,2.6,6.0,97,0.02,,,0.96,NetBSD+Arduino,2013-01-10 01:05:00,
2013-01-09 17:10:00,36.7,36.0,29.83,NE,45,3.9,9.0,97,0.02,,,0.96,NetBSD+Arduino,2013-01-10 01:10:00,
2013-01-09 17:15:00,36.6,35.9,29.83,East,90,3.0,7.5,97,0.02,,,0.96,NetBSD+Arduino,2013-01-10 01:15:00,
2013-01-09 17:20:00,36.4,35.7,29.83,NE,45,3.4,9.0,96,0.00,,,0.96,NetBSD+Arduino,2013-01-10 01:20:00,
2013-01-09 17:25:00,36.6,35.9,29.83,East,90,6.3,7.5,97,0.00,,,0.96,NetBSD+Arduino,2013-01-10 01:25:00,
2013-01-09 17:30:00,36.6,35.9,29.83,SE,135,1.9,7.5,97,0.00,,,0.96,NetBSD+Arduino,2013-01-10 01:30:00,
2013-01-09 17:35:00,36.4,35.7,29.83,East,90,0.7,10.4,97,0.02,,,0.98,NetBSD+Arduino,2013-01-10 01:35:00,
2013-01-09 17:40:00,36.1,35.5,29.84,East,90,0.0,6.0,97,0.02,,,0.98,NetBSD+Arduino,2013-01-10 01:40:00,
2013-01-09 17:45:00,36.1,35.4,29.83,NE,45,0.3,4.5,97,0.02,,,0.98,NetBSD+Arduino,2013-01-10 01:45:00,
2013-01-09 17:51:00,36.1,35.5,29.84,East,90,1.5,3.0,97,0.02,,,0.98,NetBSD+Arduino,2013-01-10 01:51:00,
2013-01-09 18:00:00,36.0,35.4,29.84,East,90,4.5,13.4,97,0.02,,,0.98,NetBSD+Arduino,2013-01-10 02:00:00,
2013-01-09 18:05:00,36.1,35.5,29.84,East,90,1.5,4.5,97,0.02,,,0.98,NetBSD+Arduino,2013-01-10 02:05:00,
2013-01-09 18:10:00,36.1,35.5,29.84,NE,45,3.0,7.5,97,0.02,,,0.98,NetBSD+Arduino,2013-01-10 02:10:00,
2013-01-09 18:16:00,36.3,35.6,29.85,North,0,4.5,6.0,97,0.02,,,0.98,NetBSD+Arduino,2013-01-10 02:16:00,
2013-01-09 18:21:00,36.3,35.6,29.85,East,90,5.2,7.5,97,0.02,,,0.98,NetBSD+Arduino,2013-01-10 02:21:00,
2013-01-09 18:30:00,36.1,35.5,29.86,East,90,7.5,9.0,97,0.02,,,0.98,NetBSD+Arduino,2013-01-10 02:30:00,
2013-01-09 18:35:00,36.1,35.4,29.86,NE,45,3.0,9.0,97,0.00,,,0.98,NetBSD+Arduino,2013-01-10 02:35:00,
2013-01-09 18:40:00,36.1,35.5,29.86,NE,45,3.5,7.5,97,0.00,,,0.98,NetBSD+Arduino,2013-01-10 02:40:00,
2013-01-09 18:45:00,36.3,35.6,29.86,NE,45,4.5,9.0,97,0.00,,,0.98,NetBSD+Arduino,2013-01-10 02:45:00,
2013-01-09 19:00:00,36.4,35.8,29.87,NE,45,1.8,4.5,97,0.00,,,0.98,NetBSD+Arduino,2013-01-10 03:00:00,
2013-01-09 19:05:00,36.4,35.8,29.86,East,90,4.8,7.5,97,0.00,,,0.98,NetBSD+Arduino,2013-01-10 03:05:00,
2013-01-09 19:10:00,36.3,35.5,29.87,East,90,1.1,7.5,96,0.02,,,0.99,NetBSD+Arduino,2013-01-10 03:10:00,
2013-01-09 19:15:00,36.3,35.6,29.87,NE,45,2.7,6.0,97,0.02,,,0.99,NetBSD+Arduino,2013-01-10 03:15:00,
2013-01-09 19:21:00,36.4,35.8,29.87,SW,225,0.0,3.0,97,0.02,,,0.99,NetBSD+Arduino,2013-01-10 03:21:00,
2013-01-09 19:26:00,36.4,35.8,29.87,West,270,0.0,0.0,97,0.02,,,0.99,NetBSD+Arduino,2013-01-10 03:26:00,
2013-01-09 19:35:00,36.6,35.9,29.87,NE,45,2.6,4.5,97,0.02,,,0.99,NetBSD+Arduino,2013-01-10 03:35:00,
2013-01-09 19:40:00,36.3,35.6,29.87,East,90,3.4,10.4,97,0.02,,,0.99,NetBSD+Arduino,2013-01-10 03:40:00,
2013-01-09 19:45:00,36.3,35.6,29.87,East,90,3.0,9.0,97,0.02,,,0.99,NetBSD+Arduino,2013-01-10 03:45:00,
2013-01-09 19:50:00,36.1,35.3,29.87,SE,135,3.0,10.4,96,0.02,,,0.99,NetBSD+Arduino,2013-01-10 03:50:00,
2013-01-09 19:55:00,35.9,35.2,29.87,East,90,3.4,9.0,97,0.02,,,0.99,NetBSD+Arduino,2013-01-10 03:55:00,
2013-01-09 20:05:00,35.7,35.0,29.88,NE,45,1.9,11.9,97,0.02,,,0.99,NetBSD+Arduino,2013-01-10 04:05:00,
2013-01-09 20:10:00,35.6,34.8,29.88,NE,45,8.6,9.0,97,0.00,,,0.99,NetBSD+Arduino,2013-01-10 04:10:00,
2013-01-09 20:20:00,35.3,34.8,29.89,NE,45,1.1,4.5,97,0.00,,,0.99,NetBSD+Arduino,2013-01-10 04:20:00,
2013-01-09 20:26:00,35.4,34.9,29.89,NE,45,2.0,6.0,97,0.00,,,0.99,NetBSD+Arduino,2013-01-10 04:26:00,
2013-01-09 20:35:00,35.4,34.8,29.89,NE,45,1.9,9.0,97,0.00,,,0.99,NetBSD+Arduino,2013-01-10 04:35:00,
2013-01-09 20:40:00,35.4,34.8,29.89,SE,135,0.0,6.0,97,0.00,,,0.99,NetBSD+Arduino,2013-01-10 04:40:00,
2013-01-09 20:45:00,35.6,35.0,29.89,NE,45,3.0,6.0,97,0.00,,,0.99,NetBSD+Arduino,2013-01-10 04:45:00,
2013-01-09 20:50:00,35.7,35.2,29.89,NE,45,3.0,6.0,98,0.00,,,0.99,NetBSD+Arduino,2013-01-10 04:50:00,
2013-01-09 20:55:00,35.7,35.2,29.89,SE,135,0.0,4.5,98,0.00,,,0.99,NetBSD+Arduino,2013-01-10 04:55:00,
2013-01-09 21:00:00,35.9,35.4,29.89,East,90,1.5,4.5,98,0.00,,,0.99,NetBSD+Arduino,2013-01-10 05:00:00,
2013-01-09 21:05:00,36.1,35.7,29.90,East,90,1.1,4.5,98,0.00,,,0.99,NetBSD+Arduino,2013-01-10 05:05:00,
2013-01-09 21:10:00,36.1,35.5,29.90,NE,45,3.0,7.5,97,0.00,,,0.99,NetBSD+Arduino,2013-01-10 05:10:00,
2013-01-09 21:15:00,36.1,35.5,29.90,East,90,1.5,4.5,97,0.00,,,0.99,NetBSD+Arduino,2013-01-10 05:15:00,
2013-01-09 21:20:00,36.1,35.5,29.90,East,90,1.0,6.0,97,0.00,,,0.99,NetBSD+Arduino,2013-01-10 05:20:00,
2013-01-09 21:25:00,36.0,35.3,29.90,NE,45,3.9,7.5,97,0.00,,,0.99,NetBSD+Arduino,2013-01-10 05:25:00,
2013-01-09 21:30:00,35.8,35.2,29.90,SW,225,0.5,9.0,97,0.00,,,0.99,NetBSD+Arduino,2013-01-10 05:30:00,
2013-01-09 21:35:00,35.9,35.3,29.90,North,0,0.5,4.5,97,0.00,,,0.99,NetBSD+Arduino,2013-01-10 05:35:00,
2013-01-09 21:40:00,35.9,35.3,29.90,NE,45,2.2,6.0,97,0.00,,,0.99,NetBSD+Arduino,2013-01-10 05:40:00,
2013-01-09 21:45:00,36.0,35.3,29.90,NE,45,3.0,6.0,97,0.00,,,0.99,NetBSD+Arduino,2013-01-10 05:45:00,
2013-01-09 21:51:00,36.2,35.5,29.90,East,90,1.1,4.5,97,0.00,,,0.99,NetBSD+Arduino,2013-01-10 05:51:00,
2013-01-09 22:00:00,36.3,35.6,29.92,SE,135,1.9,3.0,97,0.00,,,0.99,NetBSD+Arduino,2013-01-10 06:00:00,
2013-01-09 22:05:00,36.3,35.6,29.91,East,90,3.0,6.0,97,0.00,,,0.99,NetBSD+Arduino,2013-01-10 06:05:00,
2013-01-09 22:10:00,36.2,35.5,29.91,East,90,3.5,7.5,97,0.00,,,0.99,NetBSD+Arduino,2013-01-10 06:10:00,
2013-01-09 22:15:00,36.3,35.6,29.91,East,90,0.0,6.0,97,0.00,,,0.99,NetBSD+Arduino,2013-01-10 06:15:00,
2013-01-09 22:20:00,36.1,35.5,29.91,North,0,1.1,3.0,97,0.00,,,0.99,NetBSD+Arduino,2013-01-10 06:20:00,
2013-01-09 22:25:00,36.0,35.3,29.91,NE,45,1.9,3.0,97,0.00,,,0.99,NetBSD+Arduino,2013-01-10 06:25:00,
2013-01-09 22:30:00,36.0,35.4,29.91,East,90,1.5,4.5,97,0.00,,,0.99,NetBSD+Arduino,2013-01-10 06:30:00,
2013-01-09 22:40:00,36.1,35.7,29.92,East,90,0.0,3.0,98,0.00,,,0.99,NetBSD+Arduino,2013-01-10 06:40:00,
2013-01-09 22:45:00,36.3,35.8,29.92,NE,45,0.7,3.0,98,0.00,,,0.99,NetBSD+Arduino,2013-01-10 06:45:00,
2013-01-09 22:50:00,36.4,35.9,29.92,NE,45,1.9,3.0,98,0.00,,,0.99,NetBSD+Arduino,2013-01-10 06:50:00,
2013-01-09 23:01:00,36.7,36.0,29.92,SE,135,1.5,4.5,97,0.00,,,0.99,NetBSD+Arduino,2013-01-10 07:01:00,
2013-01-09 23:06:00,36.9,36.2,29.92,SE,135,1.8,4.5,97,0.00,,,0.99,NetBSD+Arduino,2013-01-10 07:06:00,
2013-01-09 23:15:00,37.1,36.2,29.92,South,180,5.5,6.0,96,0.00,,,0.99,NetBSD+Arduino,2013-01-10 07:15:00,
2013-01-09 23:20:00,37.2,36.4,29.92,South,180,2.6,7.5,96,0.00,,,0.99,NetBSD+Arduino,2013-01-10 07:20:00,
2013-01-09 23:25:00,37.3,36.2,29.92,South,180,0.7,6.0,95,0.00,,,0.99,NetBSD+Arduino,2013-01-10 07:25:00,
2013-01-09 23:30:00,37.3,36.2,29.92,South,180,1.5,7.5,95,0.00,,,0.99,NetBSD+Arduino,2013-01-10 07:30:00,
2013-01-09 23:35:00,37.3,36.1,29.92,South,180,2.6,9.0,95,0.00,,,0.99,NetBSD+Arduino,2013-01-10 07:35:00,
2013-01-09 23:40:00,37.3,36.1,29.92,South,180,4.0,6.0,95,0.00,,,0.99,NetBSD+Arduino,2013-01-10 07:40:00,
2013-01-09 23:45:00,37.4,36.2,29.92,South,180,3.7,7.5,95,0.00,,,0.99,NetBSD+Arduino,2013-01-10 07:45:00,
2013-01-09 23:50:00,37.4,36.2,29.92,South,180,0.0,6.0,95,0.00,,,0.99,NetBSD+Arduino,2013-01-10 07:50:00,
2013-01-09 23:55:00,37.4,36.2,29.92,South,180,1.5,6.0,95,0.00,,,0.99,NetBSD+Arduino,2013-01-10 07:55:00,